createdAt,value
2022-09-01T00:01:14.149Z,98.56
2022-09-01T00:03:42.103Z,98.32
2022-09-01T00:06:08.692Z,98.19
2022-09-01T00:08:35.342Z,98.06
2022-09-01T00:11:01.956Z,98.31
2022-09-01T00:13:28.615Z,97.97
2022-09-01T00:15:55.230Z,98.02
2022-09-01T00:18:21.864Z,98.62
2022-09-01T00:20:49.788Z,98.56
2022-09-01T00:23:16.387Z,98.16
2022-09-01T00:25:43.058Z,98.22
2022-09-01T00:28:09.636Z,98.21
2022-09-01T00:30:36.191Z,98.18
2022-09-01T00:33:02.767Z,98.12
2022-09-01T00:35:29.380Z,98.25
2022-09-01T00:37:57.318Z,98.65
2022-09-01T00:40:24.260Z,98.85
2022-09-01T00:42:50.915Z,98.76
2022-09-01T00:45:17.525Z,98.48
2022-09-01T00:47:44.106Z,98.46
2022-09-01T00:50:14.448Z,98.71
2022-09-01T00:52:45.256Z,98.45
2022-09-01T00:55:17.502Z,98.43
2022-09-01T00:57:45.642Z,98.42
2022-09-01T01:00:16.127Z,98.50
2022-09-01T01:02:43.543Z,98.76
2022-09-01T01:05:12.605Z,98.39
2022-09-01T01:07:43.099Z,98.70
2022-09-01T01:10:18.214Z,98.78
2022-09-01T01:12:45.361Z,98.35
2022-09-01T01:15:13.007Z,98.83
2022-09-01T01:17:40.013Z,98.69
2022-09-01T01:20:09.350Z,98.46
2022-09-01T01:22:44.640Z,98.33
2022-09-01T01:25:12.770Z,98.08
2022-09-01T01:27:43.035Z,98.13
2022-09-01T01:30:12.677Z,98.22
2022-09-01T01:32:40.162Z,98.45
2022-09-01T01:35:07.308Z,97.91
2022-09-01T01:37:34.720Z,97.84
2022-09-01T01:40:01.582Z,97.64
2022-09-01T01:42:29.574Z,97.63
2022-09-01T01:44:56.328Z,97.52
2022-09-01T01:47:22.903Z,97.50
2022-09-01T01:49:49.501Z,97.89
2022-09-01T01:52:16.064Z,97.83
2022-09-01T01:54:43.795Z,98.25
2022-09-01T01:57:10.367Z,98.69
2022-09-01T01:59:38.300Z,98.79
2022-09-01T02:02:04.994Z,98.51
2022-09-01T02:04:31.677Z,98.69
2022-09-01T02:06:58.238Z,98.92
2022-09-01T02:09:24.819Z,98.68
2022-09-01T02:11:51.800Z,98.62
2022-09-01T02:14:18.379Z,98.67
2022-09-01T02:16:46.390Z,98.72
2022-09-01T02:19:13.040Z,98.55
2022-09-01T02:21:41.286Z,98.25
2022-09-01T02:24:07.867Z,97.73
2022-09-01T02:26:36.904Z,97.92
2022-09-01T02:29:05.674Z,97.95
2022-09-01T02:31:33.119Z,97.86
2022-09-01T02:34:01.249Z,98.17
2022-09-01T02:36:28.792Z,98.46
2022-09-01T02:38:56.759Z,98.32
2022-09-01T02:41:23.891Z,98.10
2022-09-01T02:43:51.390Z,98.10
2022-09-01T02:46:18.414Z,98.16
2022-09-01T02:48:45.273Z,98.11
2022-09-01T02:51:16.159Z,98.04
2022-09-01T02:53:44.645Z,98.62
2022-09-01T02:56:12.178Z,98.51
2022-09-01T02:58:39.501Z,98.54
2022-09-01T03:01:13.326Z,98.33
2022-09-01T03:03:40.278Z,98.08
2022-09-01T03:06:06.948Z,98.47
2022-09-01T03:08:35.057Z,98.45
2022-09-01T03:11:01.615Z,98.60
2022-09-01T03:13:28.372Z,98.48
2022-09-01T03:15:54.909Z,98.25
2022-09-01T03:18:21.572Z,98.14
2022-09-01T03:20:48.321Z,98.39
2022-09-01T03:23:18.312Z,98.40
2022-09-01T03:25:49.133Z,98.66
2022-09-01T03:28:15.895Z,98.58
2022-09-01T03:30:46.464Z,98.41
2022-09-01T03:33:13.266Z,98.50
2022-09-01T03:35:39.831Z,98.84
2022-09-01T03:38:06.449Z,98.78
2022-09-01T03:40:36.118Z,98.55
2022-09-01T03:43:08.006Z,98.44
2022-09-01T03:45:34.434Z,98.85
2022-09-01T03:48:01.584Z,98.69
2022-09-01T03:50:28.111Z,98.23
2022-09-01T03:52:56.741Z,98.24
2022-09-01T03:55:26.205Z,98.67
2022-09-01T03:57:54.319Z,97.92
2022-09-01T04:00:24.210Z,98.59
2022-09-01T04:02:56.247Z,98.70
2022-09-01T04:05:24.758Z,98.07
2022-09-01T04:07:52.054Z,98.37
2022-09-01T04:10:18.862Z,98.06
2022-09-01T04:12:46.031Z,98.15
2022-09-01T04:15:14.263Z,97.84
2022-09-01T04:17:42.155Z,97.79
2022-09-01T04:20:09.421Z,97.98
2022-09-01T04:22:35.959Z,97.76
2022-09-01T04:25:02.492Z,97.66
2022-09-01T04:27:29.008Z,97.55
2022-09-01T04:29:57.650Z,97.22
2022-09-01T04:32:24.468Z,97.23
2022-09-01T04:34:52.341Z,96.38
2022-09-01T04:37:21.751Z,96.85
2022-09-01T04:39:54.826Z,96.59
2022-09-01T04:42:23.690Z,95.96
2022-09-01T04:44:50.660Z,96.38
2022-09-01T04:47:17.219Z,96.44
2022-09-01T04:49:44.222Z,96.00
2022-09-01T04:52:12.082Z,95.41
2022-09-01T04:54:39.931Z,95.55
2022-09-01T04:57:06.558Z,94.88
2022-09-01T04:59:33.976Z,95.08
2022-09-01T05:02:00.968Z,95.14
2022-09-01T05:04:30.394Z,94.85
2022-09-01T05:06:58.002Z,94.90
2022-09-01T05:09:26.662Z,94.97
2022-09-01T05:11:53.195Z,94.93
2022-09-01T05:14:20.779Z,94.38
2022-09-01T05:16:47.767Z,95.21
2022-09-01T05:19:15.813Z,94.78
2022-09-01T05:21:43.462Z,94.68
2022-09-01T05:24:10.025Z,94.78
2022-09-01T05:26:38.000Z,95.40
2022-09-01T05:29:05.596Z,95.22
2022-09-01T05:31:33.935Z,95.53
2022-09-01T05:34:00.684Z,95.33
2022-09-01T05:36:27.324Z,95.26
2022-09-01T05:38:54.142Z,95.23
2022-09-01T05:41:21.222Z,94.92
2022-09-01T05:43:49.701Z,94.71
2022-09-01T05:46:18.246Z,93.23
2022-09-01T05:48:45.772Z,93.21
2022-09-01T05:51:33.419Z,93.58
2022-09-01T05:54:00.109Z,93.77
2022-09-01T05:56:27.858Z,93.25
2022-09-01T06:01:45.733Z,93.16
2022-09-01T06:04:16.116Z,93.23
2022-09-01T06:07:04.114Z,93.10
2022-09-01T06:09:32.122Z,93.23
2022-09-01T06:11:58.650Z,93.07
2022-09-01T06:14:26.564Z,93.26
2022-09-01T06:16:53.073Z,92.48
2022-09-01T06:19:20.075Z,92.07
2022-09-01T06:21:46.584Z,92.03
2022-09-01T06:24:13.106Z,92.52
2022-09-01T06:26:39.674Z,91.78
2022-09-01T06:29:09.257Z,91.70
2022-09-01T06:31:37.785Z,91.98
2022-09-01T06:34:04.794Z,90.37
2022-09-01T06:36:35.065Z,89.32
2022-09-01T06:39:02.270Z,89.36
2022-09-01T06:41:29.246Z,87.44
2022-09-01T06:43:55.772Z,86.39
2022-09-01T06:46:22.881Z,84.97
2022-09-01T06:48:50.799Z,85.30
2022-09-01T06:51:21.696Z,85.35
2022-09-01T06:53:51.349Z,85.58
2022-09-01T06:56:17.978Z,85.26
2022-09-01T06:58:46.148Z,84.82
2022-09-01T07:01:12.936Z,83.82
2022-09-01T07:03:40.917Z,83.84
2022-09-01T07:06:58.672Z,82.22
2022-09-01T07:14:32.961Z,80.17
2022-09-01T07:19:49.155Z,79.19
2022-09-01T07:25:12.853Z,77.90
2022-09-01T07:27:41.423Z,77.71
2022-09-01T07:30:08.950Z,79.27
2022-09-01T07:32:44.271Z,78.02
2022-09-01T07:35:16.763Z,76.91
2022-09-01T07:43:22.440Z,76.85
2022-09-01T07:45:59.455Z,76.63
2022-09-01T07:48:36.646Z,77.41
2022-09-01T07:53:51.580Z,73.95
2022-09-01T07:56:20.056Z,72.69
2022-09-01T07:58:47.837Z,72.27
2022-09-01T08:01:16.905Z,71.69
2022-09-01T08:03:43.438Z,72.17
2022-09-01T08:06:13.387Z,72.39
2022-09-01T08:08:40.656Z,69.58
2022-09-01T08:11:09.149Z,69.32
2022-09-01T08:13:41.428Z,68.71
2022-09-01T08:16:16.315Z,67.62
2022-09-01T08:18:49.121Z,67.48
2022-09-01T08:21:17.144Z,67.28
2022-09-01T08:23:44.344Z,68.75
2022-09-01T08:26:15.381Z,70.33
2022-09-01T08:28:46.019Z,70.67
2022-09-01T08:31:16.165Z,72.12
2022-09-01T08:33:44.797Z,70.86
2022-09-01T08:36:13.401Z,69.86
2022-09-01T08:38:40.982Z,70.97
2022-09-01T08:41:18.411Z,70.00
2022-09-01T08:43:57.074Z,70.16
2022-09-01T08:46:27.234Z,69.42
2022-09-01T08:51:50.606Z,69.23
2022-09-01T08:54:29.667Z,67.84
2022-09-01T08:57:04.947Z,67.73
2022-09-01T08:59:31.582Z,67.14
2022-09-01T09:02:06.582Z,67.49
2022-09-01T09:04:45.281Z,70.34
2022-09-01T09:07:18.881Z,67.73
2022-09-01T09:09:54.139Z,63.66
2022-09-01T09:12:49.019Z,63.78
2022-09-01T09:15:25.442Z,62.41
2022-09-01T09:18:00.432Z,62.38
2022-09-01T09:20:27.575Z,62.24
2022-09-01T09:22:55.091Z,62.63
2022-09-01T09:25:21.818Z,61.46
2022-09-01T09:28:00.564Z,62.83
2022-09-01T09:30:29.852Z,63.07
2022-09-01T09:33:30.842Z,64.34
2022-09-01T09:35:46.890Z,63.75
2022-09-01T09:38:21.484Z,63.25
2022-09-01T09:41:18.773Z,65.23
2022-09-01T09:43:49.534Z,68.71
2022-09-01T09:46:33.212Z,65.53
2022-09-01T09:49:11.874Z,64.20
2022-09-01T09:51:40.961Z,64.85
2022-09-01T09:54:12.303Z,64.65
2022-09-01T09:56:39.982Z,64.31
2022-09-01T09:59:29.378Z,62.78
2022-09-01T10:02:28.117Z,62.37
2022-09-01T10:04:56.004Z,61.20
2022-09-01T10:07:26.715Z,61.22
2022-09-01T10:09:54.883Z,61.38
2022-09-01T10:12:22.837Z,61.38
2022-09-01T10:14:54.145Z,59.81
2022-09-01T10:17:26.095Z,59.78
2022-09-01T10:19:57.000Z,57.00
2022-09-01T10:22:25.265Z,59.18
2022-09-01T10:24:51.869Z,59.68
2022-09-01T10:27:21.840Z,60.52
2022-09-01T10:30:12.034Z,58.46
2022-09-01T10:32:50.672Z,58.45
2022-09-01T10:35:24.518Z,58.77
2022-09-01T10:37:52.253Z,59.84
2022-09-01T10:40:35.155Z,59.87
2022-09-01T10:43:37.242Z,60.02
2022-09-01T10:46:48.977Z,61.73
2022-09-01T10:49:52.497Z,61.95
2022-09-01T10:52:53.721Z,66.65
2022-09-01T10:55:24.881Z,65.65
2022-09-01T10:58:08.540Z,63.23
2022-09-01T11:04:01.926Z,64.84
2022-09-01T11:07:12.077Z,63.69
2022-09-01T11:09:40.552Z,65.77
2022-09-01T11:12:37.543Z,67.08
2022-09-01T11:15:27.206Z,66.15
2022-09-01T11:17:58.623Z,63.56
2022-09-01T11:20:28.088Z,64.45
2022-09-01T11:23:01.687Z,64.61
2022-09-01T11:25:48.382Z,64.67
2022-09-01T11:28:42.449Z,62.99
2022-09-01T11:31:31.972Z,62.66
2022-09-01T11:34:11.097Z,64.32
2022-09-01T11:36:46.857Z,62.58
2022-09-01T11:39:30.400Z,62.04
2022-09-01T11:42:04.467Z,61.78
2022-09-01T11:44:37.546Z,63.53
2022-09-01T11:47:12.024Z,62.35
2022-09-01T11:49:50.318Z,60.50
2022-09-01T11:52:19.337Z,59.98
2022-09-01T11:54:45.892Z,59.21
2022-09-01T11:57:22.215Z,61.39
2022-09-01T11:59:48.867Z,59.65
2022-09-01T12:02:20.164Z,60.70
2022-09-01T12:04:49.228Z,57.87
2022-09-01T12:07:27.216Z,56.97
2022-09-01T12:09:53.777Z,57.20
2022-09-01T12:12:33.310Z,57.84
2022-09-01T12:15:06.286Z,58.90
2022-09-01T12:17:33.518Z,60.94
2022-09-01T12:20:35.607Z,57.24
2022-09-01T12:23:03.386Z,64.65
2022-09-01T12:25:32.368Z,66.58
2022-09-01T12:28:00.138Z,66.28
2022-09-01T12:30:27.247Z,63.95
2022-09-01T12:33:22.761Z,58.97
2022-09-01T12:35:41.356Z,58.80
2022-09-01T12:38:33.396Z,60.15
2022-09-01T12:41:00.036Z,59.75
2022-09-01T12:43:37.108Z,59.08
2022-09-01T12:46:04.600Z,57.40
2022-09-01T12:48:33.443Z,57.54
2022-09-01T12:51:02.630Z,58.07
2022-09-01T12:53:32.448Z,59.57
2022-09-01T12:56:05.158Z,56.04
2022-09-01T12:58:32.472Z,57.27
2022-09-01T13:01:02.674Z,58.91
2022-09-01T13:03:30.024Z,60.62
2022-09-01T13:05:57.729Z,58.46
2022-09-01T13:08:27.166Z,58.53
2022-09-01T13:10:56.022Z,56.57
2022-09-01T13:13:25.887Z,60.00
2022-09-01T13:15:54.235Z,57.10
2022-09-01T13:18:22.212Z,59.08
2022-09-01T13:20:50.090Z,55.06
2022-09-01T13:23:17.746Z,57.03
2022-09-01T13:25:44.757Z,56.68
2022-09-01T13:28:11.829Z,54.08
2022-09-01T13:30:41.113Z,53.84
2022-09-01T13:33:23.478Z,57.00
2022-09-01T13:35:51.327Z,55.02
2022-09-01T13:38:18.960Z,55.98
2022-09-01T13:40:47.054Z,54.60
2022-09-01T13:43:15.376Z,54.28
2022-09-01T13:45:45.051Z,54.45
2022-09-01T13:48:16.327Z,52.84
2022-09-01T13:53:31.774Z,54.13
2022-09-01T13:55:58.507Z,51.76
2022-09-01T13:58:25.113Z,52.79
2022-09-01T14:00:53.616Z,55.40
2022-09-01T14:03:23.649Z,53.58
2022-09-01T14:05:50.851Z,53.65
2022-09-01T14:08:19.721Z,53.30
2022-09-01T14:10:50.288Z,55.55
2022-09-01T14:13:16.928Z,54.28
2022-09-01T14:15:43.642Z,55.60
2022-09-01T14:18:11.716Z,60.13
2022-09-01T14:20:42.298Z,61.60
2022-09-01T14:23:10.108Z,62.63
2022-09-01T14:25:37.904Z,62.64
2022-09-01T14:28:04.505Z,64.04
2022-09-01T14:30:32.904Z,60.98
2022-09-01T14:32:59.566Z,61.83
2022-09-01T14:35:28.108Z,59.57
2022-09-01T14:37:55.570Z,59.63
2022-09-01T14:40:23.527Z,58.41
2022-09-01T14:42:51.963Z,59.05
2022-09-01T14:45:19.925Z,60.61
2022-09-01T14:47:47.566Z,60.19
2022-09-01T14:50:17.270Z,61.07
2022-09-01T14:52:48.723Z,66.43
2022-09-01T14:55:15.440Z,66.26
2022-09-01T14:57:42.029Z,65.40
2022-09-01T15:00:11.216Z,65.30
2022-09-01T15:02:38.703Z,65.28
2022-09-01T15:05:06.163Z,66.96
2022-09-01T15:07:32.844Z,66.72
2022-09-01T15:10:00.770Z,67.40
2022-09-01T15:12:27.382Z,61.68
2022-09-01T15:14:53.910Z,61.39
2022-09-01T15:17:20.442Z,60.25
2022-09-01T15:19:46.988Z,67.16
2022-09-01T15:22:13.508Z,67.63
2022-09-01T15:24:40.278Z,66.18
2022-09-01T15:27:08.343Z,67.10
2022-09-01T15:29:34.898Z,66.63
2022-09-01T15:32:01.925Z,69.04
2022-09-01T15:34:28.642Z,71.18
2022-09-01T15:36:55.160Z,71.09
2022-09-01T15:39:21.760Z,70.50
2022-09-01T15:41:48.310Z,69.77
2022-09-01T15:44:16.206Z,67.56
2022-09-01T15:46:42.798Z,66.79
2022-09-01T15:49:10.391Z,59.84
2022-09-01T15:51:38.994Z,54.10
2022-09-01T15:54:07.720Z,62.13
2022-09-01T15:56:34.401Z,60.36
2022-09-01T15:59:02.292Z,60.49
2022-09-01T16:01:32.443Z,61.62
2022-09-01T16:03:59.609Z,58.29
2022-09-01T16:06:26.151Z,58.08
2022-09-01T16:08:53.310Z,55.63
2022-09-01T16:11:20.714Z,54.32
2022-09-01T16:13:47.377Z,52.35
2022-09-01T16:16:31.118Z,49.36
2022-09-01T16:19:04.811Z,55.52
2022-09-01T16:21:40.206Z,50.06
2022-09-01T16:24:10.185Z,50.23
2022-09-01T16:26:36.902Z,57.09
2022-09-01T16:29:10.205Z,54.63
2022-09-01T16:31:39.078Z,61.07
2022-09-01T16:34:13.370Z,63.22
2022-09-01T16:36:49.059Z,60.28
2022-09-01T16:39:21.005Z,64.55
2022-09-01T16:41:57.227Z,66.15
2022-09-01T16:44:35.222Z,65.42
2022-09-01T16:47:11.750Z,64.92
2022-09-01T16:49:48.501Z,65.62
2022-09-01T16:52:22.270Z,65.68
2022-09-01T16:55:00.705Z,66.19
2022-09-01T16:57:36.054Z,67.62
2022-09-01T17:00:06.650Z,66.61
2022-09-01T17:02:36.319Z,66.75
2022-09-01T17:05:14.421Z,67.19
2022-09-01T17:07:49.564Z,67.84
2022-09-01T17:10:30.494Z,67.50
2022-09-01T17:12:58.155Z,66.78
2022-09-01T17:15:31.285Z,67.67
2022-09-01T17:18:07.653Z,66.56
2022-09-01T17:20:39.538Z,67.87
2022-09-01T17:23:07.209Z,67.70
2022-09-01T17:25:40.159Z,68.34
2022-09-01T17:28:10.822Z,69.30
2022-09-01T17:30:48.815Z,71.13
2022-09-01T17:33:22.715Z,72.11
2022-09-01T17:36:04.289Z,72.89
2022-09-01T17:38:39.304Z,72.99
2022-09-01T17:41:18.354Z,72.70
2022-09-01T17:43:58.237Z,73.30
2022-09-01T17:46:32.723Z,73.82
2022-09-01T17:49:05.823Z,73.27
2022-09-01T17:51:41.385Z,74.29
2022-09-01T17:54:18.883Z,74.71
2022-09-01T17:56:57.939Z,74.84
2022-09-01T17:59:31.793Z,75.21
2022-09-01T18:02:12.532Z,75.09
2022-09-01T18:05:07.401Z,75.49
2022-09-01T18:07:52.404Z,76.19
2022-09-01T18:10:27.092Z,76.06
2022-09-01T18:13:00.540Z,76.60
2022-09-01T18:15:27.725Z,76.74
2022-09-01T18:18:04.382Z,77.29
2022-09-01T18:20:36.626Z,77.23
2022-09-01T18:23:06.983Z,78.21
2022-09-01T18:25:38.261Z,77.99
2022-09-01T18:28:05.030Z,78.21
2022-09-01T18:30:52.648Z,78.32
2022-09-01T18:33:27.160Z,78.38
2022-09-01T18:36:07.480Z,78.93
2022-09-01T18:38:43.783Z,79.11
2022-09-01T18:41:27.683Z,78.67
2022-09-01T18:44:03.041Z,78.97
2022-09-01T18:46:38.256Z,79.07
2022-09-01T18:49:13.028Z,79.67
2022-09-01T18:51:55.403Z,79.58
2022-09-01T18:54:33.039Z,79.79
2022-09-01T18:57:02.017Z,79.62
2022-09-01T18:59:48.738Z,79.75
2022-09-01T19:02:33.807Z,79.51
2022-09-01T19:05:08.262Z,79.35
2022-09-01T19:07:42.647Z,79.26
2022-09-01T19:10:18.487Z,79.37
2022-09-01T19:12:55.408Z,78.37
2022-09-01T19:15:30.060Z,80.04
2022-09-01T19:18:09.010Z,80.72
2022-09-01T19:20:41.313Z,81.00
2022-09-01T19:23:12.965Z,81.12
2022-09-01T19:25:41.985Z,80.76
2022-09-01T19:28:18.234Z,81.51
2022-09-01T19:30:48.711Z,81.34
2022-09-01T19:33:21.896Z,81.64
2022-09-01T19:35:51.158Z,82.12
2022-09-01T19:38:22.219Z,82.11
2022-09-01T19:40:53.649Z,82.67
2022-09-01T19:43:20.935Z,82.66
2022-09-01T19:45:57.325Z,83.29
2022-09-01T19:48:32.786Z,83.24
2022-09-01T19:51:05.149Z,83.70
2022-09-01T19:53:40.309Z,83.04
2022-09-01T19:56:13.329Z,83.02
2022-09-01T19:58:52.174Z,82.52
2022-09-01T20:01:26.418Z,82.26
2022-09-01T20:03:57.959Z,82.53
2022-09-01T20:06:32.153Z,82.27
2022-09-01T20:09:02.991Z,82.36
2022-09-01T20:11:42.125Z,82.32
2022-09-01T20:14:25.374Z,82.25
2022-09-01T20:16:55.874Z,82.40
2022-09-01T20:19:28.678Z,82.65
2022-09-01T20:22:03.793Z,82.99
2022-09-01T20:24:34.805Z,83.70
2022-09-01T20:27:05.619Z,83.30
2022-09-01T20:29:37.955Z,83.25
2022-09-01T20:32:04.850Z,82.84
2022-09-01T20:34:36.766Z,82.91
2022-09-01T20:37:05.954Z,82.67
2022-09-01T20:39:41.062Z,82.81
2022-09-01T20:42:15.785Z,83.11
2022-09-01T20:44:48.475Z,83.33
2022-09-01T20:47:15.030Z,83.45
2022-09-01T20:49:41.719Z,83.50
2022-09-01T20:52:13.825Z,83.12
2022-09-01T20:54:48.525Z,83.06
2022-09-01T20:57:28.579Z,83.26
2022-09-01T20:59:57.614Z,83.32
2022-09-01T21:02:33.560Z,82.93
2022-09-01T21:05:08.520Z,83.09
2022-09-01T21:07:38.464Z,83.32
2022-09-01T21:10:13.186Z,83.00
2022-09-01T21:12:50.602Z,82.83
2022-09-01T21:15:32.623Z,83.29
2022-09-01T21:18:07.857Z,83.53
2022-09-01T21:20:49.872Z,83.51
2022-09-01T21:23:16.308Z,83.58
2022-09-01T21:25:43.647Z,83.44
2022-09-01T21:28:13.534Z,83.59
2022-09-01T21:30:40.165Z,83.99
2022-09-01T21:33:06.747Z,83.91
2022-09-01T21:35:33.286Z,83.66
2022-09-01T21:37:59.855Z,84.14
2022-09-01T21:40:26.655Z,83.42
2022-09-01T21:42:58.399Z,83.77
2022-09-01T21:45:26.501Z,84.23
2022-09-01T21:47:53.552Z,84.29
2022-09-01T21:50:23.381Z,84.53
2022-09-01T21:52:50.123Z,85.80
2022-09-01T21:55:22.024Z,85.94
2022-09-01T21:57:49.759Z,86.30
2022-09-01T22:00:18.569Z,86.54
2022-09-01T22:02:46.897Z,86.84
2022-09-01T22:05:13.727Z,87.21
2022-09-01T22:07:42.656Z,87.40
2022-09-01T22:10:12.129Z,87.21
2022-09-01T22:12:41.735Z,87.11
2022-09-01T22:15:10.694Z,87.34
2022-09-01T22:17:37.954Z,87.53
2022-09-01T22:20:08.788Z,87.79
2022-09-01T22:22:35.684Z,88.30
2022-09-01T22:25:04.679Z,88.39
2022-09-01T22:27:31.248Z,88.19
2022-09-01T22:29:57.919Z,88.20
2022-09-01T22:32:24.441Z,88.17
2022-09-01T22:34:51.132Z,88.41
2022-09-01T22:37:19.025Z,88.42
2022-09-01T22:39:45.709Z,88.26
2022-09-01T22:42:12.247Z,87.90
2022-09-01T22:44:38.798Z,87.73
2022-09-01T22:47:06.078Z,87.65
2022-09-01T22:49:32.630Z,87.32
2022-09-01T22:51:59.148Z,87.18
2022-09-01T22:54:27.388Z,87.60
2022-09-01T22:56:53.922Z,87.79
2022-09-01T22:59:22.883Z,88.07
2022-09-01T23:01:49.415Z,88.27
2022-09-01T23:04:17.021Z,88.22
2022-09-01T23:06:46.039Z,88.67
2022-09-01T23:09:13.652Z,88.51
2022-09-01T23:11:41.959Z,88.46
2022-09-01T23:14:08.673Z,88.37
2022-09-01T23:16:35.339Z,88.55
2022-09-01T23:19:02.534Z,88.78
2022-09-01T23:21:31.443Z,89.06
2022-09-01T23:23:59.221Z,88.43
2022-09-01T23:26:26.422Z,88.09
2022-09-01T23:28:54.894Z,87.79
2022-09-01T23:31:23.729Z,87.65
2022-09-01T23:33:50.753Z,87.46
2022-09-01T23:36:21.316Z,87.30
2022-09-01T23:38:48.443Z,87.47
2022-09-01T23:41:17.294Z,87.63
2022-09-01T23:43:44.353Z,87.72
2022-09-01T23:46:19.091Z,88.29
2022-09-01T23:48:45.735Z,88.30
2022-09-01T23:51:12.334Z,88.13
2022-09-01T23:53:39.557Z,88.25
2022-09-01T23:56:11.440Z,89.01
2022-09-01T23:58:38.195Z,88.81
